sensor_id;sensor_type;location;lat;lon;timestamp;P1;durP1;ratioP1;P2;durP2;ratioP2
23360;SDS011;11852;50.082;18.554;2023-07-20T00:00:23;10.7;;;2.8;;
23360;SDS011;11852;50.082;18.554;2023-07-20T00:01:28;6.1;;;2.5;;
23360;SDS011;11852;50.082;18.554;2023-07-20T00:02:34;5.5;;;2.5;;
23360;SDS011;11852;50.082;18.554;2023-07-20T00:03:38;6.3;;;2.4;;
23360;SDS011;11852;50.082;18.554;2023-07-20T00:04:44;5.2;;;2.0;;
23360;SDS011;11852;50.082;18.554;2023-07-20T00:05:49;6.3;;;2.1;;
23360;SDS011;11852;50.082;18.554;2023-07-20T00:06:54;5.1;;;2.0;;
23360;SDS011;11852;50.082;18.554;2023-07-20T00:07:59;5.3;;;2.3;;
23360;SDS011;11852;50.082;18.554;2023-07-20T00:09:04;5.3;;;2.2;;
23360;SDS011;11852;50.082;18.554;2023-07-20T00:10:09;6.0;;;2.2;;
23360;SDS011;11852;50.082;18.554;2023-07-20T00:11:13;6.5;;;2.1;;
23360;SDS011;11852;50.082;18.554;2023-07-20T00:12:18;7.7;;;2.2;;
23360;SDS011;11852;50.082;18.554;2023-07-20T00:13:23;5.9;;;2.3;;
23360;SDS011;11852;50.082;18.554;2023-07-20T00:14:28;5.5;;;1.9;;
23360;SDS011;11852;50.082;18.554;2023-07-20T00:15:33;7.2;;;2.1;;
23360;SDS011;11852;50.082;18.554;2023-07-20T00:16:39;4.9;;;1.9;;
23360;SDS011;11852;50.082;18.554;2023-07-20T00:17:44;4.9;;;1.8;;
23360;SDS011;11852;50.082;18.554;2023-07-20T00:18:50;5.2;;;1.7;;
23360;SDS011;11852;50.082;18.554;2023-07-20T00:19:54;6.0;;;1.7;;
23360;SDS011;11852;50.082;18.554;2023-07-20T00:21:00;5.0;;;1.8;;
23360;SDS011;11852;50.082;18.554;2023-07-20T00:22:05;6.5;;;1.7;;
23360;SDS011;11852;50.082;18.554;2023-07-20T00:23:10;4.7;;;1.8;;
23360;SDS011;11852;50.082;18.554;2023-07-20T00:24:14;4.4;;;1.9;;
23360;SDS011;11852;50.082;18.554;2023-07-20T00:25:19;4.9;;;2.1;;
23360;SDS011;11852;50.082;18.554;2023-07-20T00:26:24;4.1;;;1.8;;
23360;SDS011;11852;50.082;18.554;2023-07-20T00:27:29;6.0;;;1.9;;
23360;SDS011;11852;50.082;18.554;2023-07-20T00:28:33;6.9;;;2.0;;
23360;SDS011;11852;50.082;18.554;2023-07-20T00:29:38;5.4;;;1.9;;
23360;SDS011;11852;50.082;18.554;2023-07-20T00:30:43;4.2;;;1.8;;
23360;SDS011;11852;50.082;18.554;2023-07-20T00:31:48;5.0;;;1.8;;
23360;SDS011;11852;50.082;18.554;2023-07-20T00:32:54;5.5;;;1.8;;
23360;SDS011;11852;50.082;18.554;2023-07-20T00:33:59;4.9;;;1.7;;
23360;SDS011;11852;50.082;18.554;2023-07-20T00:35:03;5.7;;;1.6;;
23360;SDS011;11852;50.082;18.554;2023-07-20T00:36:08;4.1;;;1.7;;
23360;SDS011;11852;50.082;18.554;2023-07-20T00:37:13;4.6;;;1.6;;
23360;SDS011;11852;50.082;18.554;2023-07-20T00:38:18;4.0;;;1.6;;
23360;SDS011;11852;50.082;18.554;2023-07-20T00:39:23;5.9;;;1.7;;
23360;SDS011;11852;50.082;18.554;2023-07-20T00:40:28;4.8;;;1.5;;
23360;SDS011;11852;50.082;18.554;2023-07-20T00:41:32;4.4;;;1.6;;
23360;SDS011;11852;50.082;18.554;2023-07-20T00:42:37;6.1;;;1.9;;
23360;SDS011;11852;50.082;18.554;2023-07-20T00:43:42;4.8;;;1.6;;
23360;SDS011;11852;50.082;18.554;2023-07-20T00:44:47;5.0;;;1.8;;
23360;SDS011;11852;50.082;18.554;2023-07-20T00:45:52;4.6;;;1.6;;
23360;SDS011;11852;50.082;18.554;2023-07-20T00:46:59;5.0;;;1.8;;
23360;SDS011;11852;50.082;18.554;2023-07-20T00:48:05;4.5;;;1.6;;
23360;SDS011;11852;50.082;18.554;2023-07-20T00:49:10;5.0;;;1.6;;
23360;SDS011;11852;50.082;18.554;2023-07-20T00:50:15;5.1;;;1.7;;
23360;SDS011;11852;50.082;18.554;2023-07-20T00:51:21;4.2;;;1.7;;
23360;SDS011;11852;50.082;18.554;2023-07-20T00:52:25;6.1;;;1.7;;
23360;SDS011;11852;50.082;18.554;2023-07-20T00:53:29;4.6;;;1.8;;
23360;SDS011;11852;50.082;18.554;2023-07-20T00:54:37;3.7;;;1.5;;
23360;SDS011;11852;50.082;18.554;2023-07-20T00:55:42;4.4;;;1.6;;
23360;SDS011;11852;50.082;18.554;2023-07-20T00:56:47;4.3;;;1.8;;
23360;SDS011;11852;50.082;18.554;2023-07-20T00:57:52;5.3;;;1.5;;
23360;SDS011;11852;50.082;18.554;2023-07-20T00:58:57;4.7;;;1.7;;
23360;SDS011;11852;50.082;18.554;2023-07-20T01:00:02;5.2;;;1.8;;
23360;SDS011;11852;50.082;18.554;2023-07-20T01:01:06;5.0;;;1.7;;
23360;SDS011;11852;50.082;18.554;2023-07-20T01:02:11;3.6;;;1.6;;
23360;SDS011;11852;50.082;18.554;2023-07-20T01:03:16;5.8;;;1.6;;
23360;SDS011;11852;50.082;18.554;2023-07-20T01:04:21;4.3;;;1.7;;
23360;SDS011;11852;50.082;18.554;2023-07-20T01:05:35;5.4;;;1.7;;
23360;SDS011;11852;50.082;18.554;2023-07-20T01:09:08;3.6;;;1.6;;
23360;SDS011;11852;50.082;18.554;2023-07-20T01:11:16;4.4;;;1.7;;
23360;SDS011;11852;50.082;18.554;2023-07-20T01:13:25;4.7;;;1.8;;
23360;SDS011;11852;50.082;18.554;2023-07-20T01:14:30;6.1;;;1.7;;
23360;SDS011;11852;50.082;18.554;2023-07-20T01:15:35;6.2;;;2.0;;
23360;SDS011;11852;50.082;18.554;2023-07-20T01:16:40;5.0;;;2.0;;
23360;SDS011;11852;50.082;18.554;2023-07-20T01:17:45;5.4;;;1.8;;
23360;SDS011;11852;50.082;18.554;2023-07-20T01:18:49;4.1;;;1.9;;
23360;SDS011;11852;50.082;18.554;2023-07-20T01:19:54;6.5;;;1.9;;
23360;SDS011;11852;50.082;18.554;2023-07-20T01:20:59;5.6;;;1.9;;
23360;SDS011;11852;50.082;18.554;2023-07-20T01:31:47;6.5;;;2.0;;
23360;SDS011;11852;50.082;18.554;2023-07-20T01:32:52;7.1;;;1.9;;
23360;SDS011;11852;50.082;18.554;2023-07-20T01:33:58;5.2;;;1.8;;
23360;SDS011;11852;50.082;18.554;2023-07-20T01:35:02;6.4;;;2.1;;
23360;SDS011;11852;50.082;18.554;2023-07-20T01:36:07;5.7;;;1.9;;
23360;SDS011;11852;50.082;18.554;2023-07-20T01:37:12;5.9;;;2.0;;
23360;SDS011;11852;50.082;18.554;2023-07-20T01:38:17;4.2;;;1.8;;
23360;SDS011;11852;50.082;18.554;2023-07-20T01:39:22;3.9;;;1.6;;
23360;SDS011;11852;50.082;18.554;2023-07-20T01:40:27;6.1;;;2.1;;
23360;SDS011;11852;50.082;18.554;2023-07-20T01:41:33;5.4;;;1.8;;
23360;SDS011;11852;50.082;18.554;2023-07-20T01:42:38;4.8;;;1.6;;
23360;SDS011;11852;50.082;18.554;2023-07-20T01:43:44;4.8;;;1.6;;
23360;SDS011;11852;50.082;18.554;2023-07-20T01:44:52;4.2;;;1.8;;
23360;SDS011;11852;50.082;18.554;2023-07-20T01:45:57;5.7;;;1.8;;
23360;SDS011;11852;50.082;18.554;2023-07-20T01:47:02;5.0;;;1.5;;
23360;SDS011;11852;50.082;18.554;2023-07-20T01:48:07;3.7;;;1.8;;
23360;SDS011;11852;50.082;18.554;2023-07-20T01:49:11;5.4;;;1.8;;
23360;SDS011;11852;50.082;18.554;2023-07-20T01:50:16;4.8;;;1.5;;
23360;SDS011;11852;50.082;18.554;2023-07-20T01:51:21;4.8;;;1.7;;
23360;SDS011;11852;50.082;18.554;2023-07-20T01:52:27;4.8;;;1.6;;
23360;SDS011;11852;50.082;18.554;2023-07-20T01:53:32;4.3;;;1.5;;
23360;SDS011;11852;50.082;18.554;2023-07-20T01:54:38;4.6;;;1.5;;
23360;SDS011;11852;50.082;18.554;2023-07-20T01:55:43;4.8;;;1.5;;
23360;SDS011;11852;50.082;18.554;2023-07-20T01:56:47;5.4;;;1.7;;
23360;SDS011;11852;50.082;18.554;2023-07-20T01:57:52;5.8;;;1.6;;
23360;SDS011;11852;50.082;18.554;2023-07-20T01:58:57;5.6;;;1.5;;
23360;SDS011;11852;50.082;18.554;2023-07-20T02:00:02;5.1;;;1.3;;
23360;SDS011;11852;50.082;18.554;2023-07-20T02:01:07;4.2;;;1.5;;
23360;SDS011;11852;50.082;18.554;2023-07-20T02:02:12;7.0;;;1.6;;
23360;SDS011;11852;50.082;18.554;2023-07-20T02:03:18;9.9;;;2.1;;
23360;SDS011;11852;50.082;18.554;2023-07-20T02:04:23;8.0;;;1.6;;
23360;SDS011;11852;50.082;18.554;2023-07-20T02:05:28;6.4;;;2.0;;
23360;SDS011;11852;50.082;18.554;2023-07-20T02:06:33;7.1;;;1.9;;
23360;SDS011;11852;50.082;18.554;2023-07-20T02:07:40;5.6;;;1.7;;
23360;SDS011;11852;50.082;18.554;2023-07-20T02:08:44;4.7;;;1.6;;
23360;SDS011;11852;50.082;18.554;2023-07-20T02:09:51;5.6;;;1.5;;
23360;SDS011;11852;50.082;18.554;2023-07-20T02:10:56;4.4;;;1.5;;
23360;SDS011;11852;50.082;18.554;2023-07-20T02:12:01;4.4;;;1.6;;
23360;SDS011;11852;50.082;18.554;2023-07-20T02:13:06;4.9;;;1.4;;
23360;SDS011;11852;50.082;18.554;2023-07-20T02:14:11;4.5;;;1.6;;
23360;SDS011;11852;50.082;18.554;2023-07-20T02:15:17;4.0;;;1.4;;
23360;SDS011;11852;50.082;18.554;2023-07-20T02:16:21;5.0;;;1.5;;
23360;SDS011;11852;50.082;18.554;2023-07-20T02:17:27;5.1;;;1.5;;
23360;SDS011;11852;50.082;18.554;2023-07-20T02:18:32;5.2;;;1.5;;
23360;SDS011;11852;50.082;18.554;2023-07-20T02:19:37;6.1;;;1.6;;
23360;SDS011;11852;50.082;18.554;2023-07-20T02:20:41;5.2;;;1.5;;
23360;SDS011;11852;50.082;18.554;2023-07-20T02:21:46;6.2;;;1.5;;
23360;SDS011;11852;50.082;18.554;2023-07-20T02:22:51;5.0;;;1.6;;
23360;SDS011;11852;50.082;18.554;2023-07-20T02:23:56;4.8;;;1.6;;
23360;SDS011;11852;50.082;18.554;2023-07-20T02:25:00;5.8;;;1.6;;
23360;SDS011;11852;50.082;18.554;2023-07-20T02:26:05;4.7;;;1.5;;
23360;SDS011;11852;50.082;18.554;2023-07-20T02:27:14;4.9;;;1.5;;
23360;SDS011;11852;50.082;18.554;2023-07-20T02:28:19;4.8;;;1.7;;
23360;SDS011;11852;50.082;18.554;2023-07-20T02:29:24;6.5;;;1.5;;
23360;SDS011;11852;50.082;18.554;2023-07-20T02:30:28;5.1;;;1.7;;
23360;SDS011;11852;50.082;18.554;2023-07-20T02:31:33;5.7;;;1.4;;
23360;SDS011;11852;50.082;18.554;2023-07-20T02:32:38;3.7;;;1.5;;
23360;SDS011;11852;50.082;18.554;2023-07-20T02:33:43;4.2;;;1.5;;
23360;SDS011;11852;50.082;18.554;2023-07-20T02:34:48;4.9;;;1.5;;
23360;SDS011;11852;50.082;18.554;2023-07-20T02:35:52;5.1;;;1.6;;
23360;SDS011;11852;50.082;18.554;2023-07-20T02:36:58;5.4;;;1.5;;
23360;SDS011;11852;50.082;18.554;2023-07-20T02:38:03;5.0;;;1.5;;
23360;SDS011;11852;50.082;18.554;2023-07-20T02:39:09;4.0;;;1.7;;
23360;SDS011;11852;50.082;18.554;2023-07-20T02:40:13;4.1;;;1.4;;
23360;SDS011;11852;50.082;18.554;2023-07-20T02:41:18;4.4;;;1.4;;
23360;SDS011;11852;50.082;18.554;2023-07-20T02:42:23;4.2;;;1.5;;
23360;SDS011;11852;50.082;18.554;2023-07-20T02:43:28;5.4;;;1.4;;
23360;SDS011;11852;50.082;18.554;2023-07-20T02:44:33;5.2;;;1.5;;
23360;SDS011;11852;50.082;18.554;2023-07-20T02:45:41;3.7;;;1.3;;
23360;SDS011;11852;50.082;18.554;2023-07-20T02:46:46;3.8;;;1.4;;
23360;SDS011;11852;50.082;18.554;2023-07-20T02:47:50;3.8;;;1.4;;
23360;SDS011;11852;50.082;18.554;2023-07-20T02:48:55;3.6;;;1.4;;
23360;SDS011;11852;50.082;18.554;2023-07-20T02:50:00;4.7;;;1.7;;
23360;SDS011;11852;50.082;18.554;2023-07-20T02:51:05;4.7;;;1.5;;
23360;SDS011;11852;50.082;18.554;2023-07-20T02:52:10;6.6;;;1.5;;
23360;SDS011;11852;50.082;18.554;2023-07-20T02:53:14;4.1;;;1.5;;
23360;SDS011;11852;50.082;18.554;2023-07-20T02:54:19;3.6;;;1.4;;
23360;SDS011;11852;50.082;18.554;2023-07-20T02:55:24;4.1;;;1.5;;
23360;SDS011;11852;50.082;18.554;2023-07-20T02:56:29;4.7;;;1.5;;
23360;SDS011;11852;50.082;18.554;2023-07-20T02:57:34;5.2;;;1.6;;
23360;SDS011;11852;50.082;18.554;2023-07-20T02:58:42;5.7;;;1.4;;
23360;SDS011;11852;50.082;18.554;2023-07-20T02:59:43;4.3;;;1.6;;
23360;SDS011;11852;50.082;18.554;2023-07-20T03:00:48;3.9;;;1.7;;
23360;SDS011;11852;50.082;18.554;2023-07-20T03:01:53;4.6;;;1.5;;
23360;SDS011;11852;50.082;18.554;2023-07-20T03:02:58;3.8;;;1.4;;
23360;SDS011;11852;50.082;18.554;2023-07-20T03:04:03;4.1;;;1.4;;
23360;SDS011;11852;50.082;18.554;2023-07-20T03:05:08;4.3;;;1.4;;
23360;SDS011;11852;50.082;18.554;2023-07-20T03:06:13;4.1;;;1.5;;
23360;SDS011;11852;50.082;18.554;2023-07-20T03:07:21;4.2;;;1.5;;
23360;SDS011;11852;50.082;18.554;2023-07-20T03:08:26;6.3;;;1.5;;
23360;SDS011;11852;50.082;18.554;2023-07-20T03:09:32;4.2;;;1.5;;
23360;SDS011;11852;50.082;18.554;2023-07-20T03:10:40;4.9;;;1.5;;
23360;SDS011;11852;50.082;18.554;2023-07-20T03:11:46;4.7;;;1.7;;
23360;SDS011;11852;50.082;18.554;2023-07-20T03:12:50;4.9;;;1.8;;
23360;SDS011;11852;50.082;18.554;2023-07-20T03:13:55;5.5;;;1.5;;
23360;SDS011;11852;50.082;18.554;2023-07-20T03:15:01;4.3;;;1.7;;
23360;SDS011;11852;50.082;18.554;2023-07-20T03:16:05;4.6;;;1.4;;
23360;SDS011;11852;50.082;18.554;2023-07-20T03:17:10;3.8;;;1.6;;
23360;SDS011;11852;50.082;18.554;2023-07-20T03:18:14;4.5;;;1.8;;
23360;SDS011;11852;50.082;18.554;2023-07-20T03:19:20;4.6;;;1.6;;
23360;SDS011;11852;50.082;18.554;2023-07-20T03:20:25;4.2;;;1.6;;
23360;SDS011;11852;50.082;18.554;2023-07-20T03:21:30;4.7;;;1.6;;
23360;SDS011;11852;50.082;18.554;2023-07-20T03:22:34;6.4;;;1.7;;
23360;SDS011;11852;50.082;18.554;2023-07-20T03:23:39;6.6;;;1.6;;
23360;SDS011;11852;50.082;18.554;2023-07-20T03:24:44;5.7;;;1.7;;
23360;SDS011;11852;50.082;18.554;2023-07-20T03:25:49;4.5;;;1.6;;
23360;SDS011;11852;50.082;18.554;2023-07-20T03:26:53;4.2;;;1.5;;
23360;SDS011;11852;50.082;18.554;2023-07-20T03:27:58;6.0;;;1.8;;
23360;SDS011;11852;50.082;18.554;2023-07-20T03:29:04;4.5;;;1.4;;
23360;SDS011;11852;50.082;18.554;2023-07-20T03:30:09;4.4;;;1.6;;
23360;SDS011;11852;50.082;18.554;2023-07-20T03:31:14;4.0;;;1.3;;
23360;SDS011;11852;50.082;18.554;2023-07-20T03:32:19;3.9;;;1.5;;
23360;SDS011;11852;50.082;18.554;2023-07-20T03:33:27;5.0;;;1.5;;
23360;SDS011;11852;50.082;18.554;2023-07-20T03:34:31;5.7;;;1.6;;
23360;SDS011;11852;50.082;18.554;2023-07-20T03:35:36;4.2;;;1.5;;
23360;SDS011;11852;50.082;18.554;2023-07-20T03:36:41;4.6;;;1.7;;
23360;SDS011;11852;50.082;18.554;2023-07-20T03:37:45;4.2;;;1.7;;
23360;SDS011;11852;50.082;18.554;2023-07-20T03:38:50;5.8;;;1.7;;
23360;SDS011;11852;50.082;18.554;2023-07-20T03:39:56;4.6;;;1.6;;
23360;SDS011;11852;50.082;18.554;2023-07-20T03:41:00;4.8;;;1.7;;
23360;SDS011;11852;50.082;18.554;2023-07-20T03:42:05;5.7;;;1.6;;
23360;SDS011;11852;50.082;18.554;2023-07-20T03:43:10;3.8;;;1.6;;
23360;SDS011;11852;50.082;18.554;2023-07-20T03:44:15;4.2;;;1.5;;
23360;SDS011;11852;50.082;18.554;2023-07-20T03:45:20;5.1;;;1.8;;
23360;SDS011;11852;50.082;18.554;2023-07-20T03:46:24;4.0;;;1.3;;
23360;SDS011;11852;50.082;18.554;2023-07-20T03:47:29;3.6;;;1.5;;
23360;SDS011;11852;50.082;18.554;2023-07-20T03:48:34;4.4;;;1.7;;
23360;SDS011;11852;50.082;18.554;2023-07-20T03:49:39;4.7;;;1.5;;
23360;SDS011;11852;50.082;18.554;2023-07-20T03:50:44;4.1;;;1.5;;
23360;SDS011;11852;50.082;18.554;2023-07-20T03:51:49;5.2;;;1.4;;
23360;SDS011;11852;50.082;18.554;2023-07-20T03:52:53;3.9;;;1.4;;
23360;SDS011;11852;50.082;18.554;2023-07-20T03:53:58;5.2;;;1.5;;
23360;SDS011;11852;50.082;18.554;2023-07-20T03:55:03;4.5;;;1.4;;
23360;SDS011;11852;50.082;18.554;2023-07-20T03:56:08;3.5;;;1.4;;
23360;SDS011;11852;50.082;18.554;2023-07-20T03:57:13;5.5;;;1.4;;
23360;SDS011;11852;50.082;18.554;2023-07-20T03:58:18;3.2;;;1.3;;
23360;SDS011;11852;50.082;18.554;2023-07-20T03:59:23;5.6;;;1.6;;
23360;SDS011;11852;50.082;18.554;2023-07-20T04:00:27;4.6;;;1.3;;
23360;SDS011;11852;50.082;18.554;2023-07-20T04:01:33;5.0;;;1.5;;
23360;SDS011;11852;50.082;18.554;2023-07-20T04:02:37;4.3;;;1.5;;
23360;SDS011;11852;50.082;18.554;2023-07-20T04:03:42;4.5;;;1.5;;
23360;SDS011;11852;50.082;18.554;2023-07-20T04:04:47;4.7;;;1.4;;
23360;SDS011;11852;50.082;18.554;2023-07-20T04:05:55;5.7;;;1.4;;
23360;SDS011;11852;50.082;18.554;2023-07-20T04:07:00;4.4;;;1.3;;
23360;SDS011;11852;50.082;18.554;2023-07-20T04:08:04;4.6;;;1.4;;
23360;SDS011;11852;50.082;18.554;2023-07-20T04:09:11;4.7;;;1.5;;
23360;SDS011;11852;50.082;18.554;2023-07-20T04:10:14;4.2;;;1.3;;
23360;SDS011;11852;50.082;18.554;2023-07-20T04:11:19;4.4;;;1.5;;
23360;SDS011;11852;50.082;18.554;2023-07-20T04:12:25;4.0;;;1.6;;
23360;SDS011;11852;50.082;18.554;2023-07-20T04:13:30;4.9;;;1.5;;
23360;SDS011;11852;50.082;18.554;2023-07-20T04:14:34;4.5;;;1.5;;
23360;SDS011;11852;50.082;18.554;2023-07-20T04:15:40;4.3;;;1.3;;
23360;SDS011;11852;50.082;18.554;2023-07-20T04:16:48;4.8;;;1.5;;
23360;SDS011;11852;50.082;18.554;2023-07-20T04:17:53;5.0;;;1.3;;
23360;SDS011;11852;50.082;18.554;2023-07-20T04:18:57;3.3;;;1.3;;
23360;SDS011;11852;50.082;18.554;2023-07-20T04:20:02;4.0;;;1.6;;
23360;SDS011;11852;50.082;18.554;2023-07-20T04:21:07;3.8;;;1.4;;
23360;SDS011;11852;50.082;18.554;2023-07-20T04:22:13;2.9;;;1.3;;
23360;SDS011;11852;50.082;18.554;2023-07-20T04:23:18;3.5;;;1.4;;
23360;SDS011;11852;50.082;18.554;2023-07-20T04:24:23;4.1;;;1.5;;
23360;SDS011;11852;50.082;18.554;2023-07-20T04:25:28;3.6;;;1.4;;
23360;SDS011;11852;50.082;18.554;2023-07-20T04:26:34;5.6;;;1.4;;
23360;SDS011;11852;50.082;18.554;2023-07-20T04:27:39;6.1;;;1.5;;
23360;SDS011;11852;50.082;18.554;2023-07-20T04:28:43;4.3;;;1.8;;
23360;SDS011;11852;50.082;18.554;2023-07-20T04:29:49;3.5;;;1.5;;
23360;SDS011;11852;50.082;18.554;2023-07-20T04:30:54;5.1;;;1.7;;
23360;SDS011;11852;50.082;18.554;2023-07-20T04:31:59;5.0;;;1.6;;
23360;SDS011;11852;50.082;18.554;2023-07-20T04:33:04;5.9;;;1.8;;
23360;SDS011;11852;50.082;18.554;2023-07-20T04:34:09;8.9;;;2.0;;
23360;SDS011;11852;50.082;18.554;2023-07-20T04:36:30;6.7;;;2.2;;
23360;SDS011;11852;50.082;18.554;2023-07-20T04:37:35;4.4;;;1.5;;
23360;SDS011;11852;50.082;18.554;2023-07-20T04:38:41;3.5;;;1.6;;
23360;SDS011;11852;50.082;18.554;2023-07-20T04:39:46;4.2;;;1.7;;
23360;SDS011;11852;50.082;18.554;2023-07-20T04:40:51;4.8;;;1.7;;
23360;SDS011;11852;50.082;18.554;2023-07-20T04:41:57;5.2;;;1.8;;
23360;SDS011;11852;50.082;18.554;2023-07-20T04:43:01;6.7;;;1.8;;
23360;SDS011;11852;50.082;18.554;2023-07-20T04:44:06;5.1;;;2.0;;
23360;SDS011;11852;50.082;18.554;2023-07-20T04:45:12;5.0;;;2.1;;
23360;SDS011;11852;50.082;18.554;2023-07-20T04:46:17;5.6;;;1.8;;
23360;SDS011;11852;50.082;18.554;2023-07-20T04:47:21;4.5;;;1.8;;
23360;SDS011;11852;50.082;18.554;2023-07-20T04:48:27;7.8;;;2.1;;
23360;SDS011;11852;50.082;18.554;2023-07-20T04:49:32;5.3;;;1.9;;
23360;SDS011;11852;50.082;18.554;2023-07-20T04:50:37;5.4;;;1.9;;
23360;SDS011;11852;50.082;18.554;2023-07-20T04:51:41;5.2;;;1.8;;
23360;SDS011;11852;50.082;18.554;2023-07-20T04:52:46;5.1;;;1.9;;
23360;SDS011;11852;50.082;18.554;2023-07-20T04:53:51;5.4;;;1.8;;
23360;SDS011;11852;50.082;18.554;2023-07-20T04:54:56;4.1;;;1.7;;
23360;SDS011;11852;50.082;18.554;2023-07-20T04:56:02;5.6;;;1.8;;
23360;SDS011;11852;50.082;18.554;2023-07-20T04:57:10;5.7;;;1.7;;
23360;SDS011;11852;50.082;18.554;2023-07-20T04:58:12;4.3;;;1.7;;
23360;SDS011;11852;50.082;18.554;2023-07-20T04:59:20;4.1;;;1.6;;
23360;SDS011;11852;50.082;18.554;2023-07-20T05:00:25;5.0;;;1.6;;
23360;SDS011;11852;50.082;18.554;2023-07-20T05:01:31;5.7;;;1.8;;
23360;SDS011;11852;50.082;18.554;2023-07-20T05:02:36;4.1;;;1.7;;
23360;SDS011;11852;50.082;18.554;2023-07-20T05:03:41;4.8;;;1.7;;
23360;SDS011;11852;50.082;18.554;2023-07-20T05:04:45;4.3;;;1.6;;
23360;SDS011;11852;50.082;18.554;2023-07-20T05:05:50;5.5;;;1.6;;
23360;SDS011;11852;50.082;18.554;2023-07-20T05:06:55;5.8;;;1.7;;
23360;SDS011;11852;50.082;18.554;2023-07-20T05:08:00;4.3;;;1.5;;
23360;SDS011;11852;50.082;18.554;2023-07-20T05:09:06;4.4;;;1.5;;
23360;SDS011;11852;50.082;18.554;2023-07-20T05:10:10;4.5;;;1.8;;
23360;SDS011;11852;50.082;18.554;2023-07-20T05:11:16;4.3;;;1.7;;
23360;SDS011;11852;50.082;18.554;2023-07-20T05:12:21;4.8;;;1.6;;
23360;SDS011;11852;50.082;18.554;2023-07-20T05:13:26;4.3;;;1.7;;
23360;SDS011;11852;50.082;18.554;2023-07-20T05:14:30;5.3;;;1.9;;
23360;SDS011;11852;50.082;18.554;2023-07-20T05:15:36;5.1;;;1.7;;
23360;SDS011;11852;50.082;18.554;2023-07-20T05:16:41;4.3;;;1.6;;
23360;SDS011;11852;50.082;18.554;2023-07-20T05:17:46;5.1;;;1.8;;
23360;SDS011;11852;50.082;18.554;2023-07-20T05:18:50;4.8;;;1.7;;
23360;SDS011;11852;50.082;18.554;2023-07-20T05:19:56;5.8;;;1.7;;
23360;SDS011;11852;50.082;18.554;2023-07-20T05:21:01;5.9;;;1.8;;
23360;SDS011;11852;50.082;18.554;2023-07-20T05:22:06;5.0;;;1.8;;
23360;SDS011;11852;50.082;18.554;2023-07-20T05:23:11;6.0;;;1.7;;
23360;SDS011;11852;50.082;18.554;2023-07-20T05:24:15;5.0;;;1.7;;
23360;SDS011;11852;50.082;18.554;2023-07-20T05:25:21;4.5;;;1.9;;
23360;SDS011;11852;50.082;18.554;2023-07-20T05:26:26;5.3;;;1.7;;
23360;SDS011;11852;50.082;18.554;2023-07-20T05:27:31;4.7;;;1.7;;
23360;SDS011;11852;50.082;18.554;2023-07-20T05:28:35;4.6;;;1.9;;
23360;SDS011;11852;50.082;18.554;2023-07-20T05:29:44;6.6;;;1.9;;
23360;SDS011;11852;50.082;18.554;2023-07-20T05:30:51;5.1;;;1.7;;
23360;SDS011;11852;50.082;18.554;2023-07-20T05:31:56;5.1;;;2.0;;
23360;SDS011;11852;50.082;18.554;2023-07-20T05:33:00;4.9;;;1.9;;
23360;SDS011;11852;50.082;18.554;2023-07-20T05:34:05;4.8;;;1.8;;
23360;SDS011;11852;50.082;18.554;2023-07-20T05:35:10;4.6;;;1.5;;
23360;SDS011;11852;50.082;18.554;2023-07-20T05:37:30;5.0;;;2.0;;
23360;SDS011;11852;50.082;18.554;2023-07-20T05:38:35;5.4;;;1.8;;
23360;SDS011;11852;50.082;18.554;2023-07-20T05:39:39;5.9;;;1.9;;
23360;SDS011;11852;50.082;18.554;2023-07-20T05:40:44;5.3;;;1.9;;
23360;SDS011;11852;50.082;18.554;2023-07-20T05:41:49;6.6;;;1.8;;
23360;SDS011;11852;50.082;18.554;2023-07-20T05:42:54;5.9;;;2.0;;
23360;SDS011;11852;50.082;18.554;2023-07-20T05:43:59;6.4;;;2.0;;
23360;SDS011;11852;50.082;18.554;2023-07-20T05:45:04;4.6;;;1.7;;
23360;SDS011;11852;50.082;18.554;2023-07-20T05:46:09;5.0;;;1.8;;
23360;SDS011;11852;50.082;18.554;2023-07-20T05:47:13;6.2;;;1.9;;
23360;SDS011;11852;50.082;18.554;2023-07-20T05:48:18;4.1;;;1.9;;
23360;SDS011;11852;50.082;18.554;2023-07-20T05:49:23;6.1;;;2.4;;
23360;SDS011;11852;50.082;18.554;2023-07-20T05:50:29;4.9;;;2.5;;
23360;SDS011;11852;50.082;18.554;2023-07-20T05:51:34;6.6;;;2.3;;
23360;SDS011;11852;50.082;18.554;2023-07-20T05:52:39;6.1;;;2.5;;
23360;SDS011;11852;50.082;18.554;2023-07-20T05:53:44;6.2;;;2.5;;
23360;SDS011;11852;50.082;18.554;2023-07-20T05:54:48;6.5;;;2.4;;
23360;SDS011;11852;50.082;18.554;2023-07-20T05:55:53;5.6;;;1.7;;
23360;SDS011;11852;50.082;18.554;2023-07-20T05:56:58;5.6;;;2.0;;
23360;SDS011;11852;50.082;18.554;2023-07-20T05:58:03;5.8;;;1.9;;
23360;SDS011;11852;50.082;18.554;2023-07-20T05:59:07;7.4;;;2.1;;
23360;SDS011;11852;50.082;18.554;2023-07-20T06:00:13;5.1;;;1.6;;
23360;SDS011;11852;50.082;18.554;2023-07-20T06:01:18;4.6;;;1.6;;
23360;SDS011;11852;50.082;18.554;2023-07-20T06:02:22;4.6;;;1.6;;
23360;SDS011;11852;50.082;18.554;2023-07-20T06:03:27;3.8;;;1.6;;
23360;SDS011;11852;50.082;18.554;2023-07-20T06:04:32;5.0;;;1.4;;
23360;SDS011;11852;50.082;18.554;2023-07-20T06:05:37;4.2;;;1.4;;
23360;SDS011;11852;50.082;18.554;2023-07-20T06:06:42;3.6;;;1.5;;
23360;SDS011;11852;50.082;18.554;2023-07-20T06:07:47;4.5;;;1.6;;
23360;SDS011;11852;50.082;18.554;2023-07-20T06:08:52;5.1;;;1.6;;
23360;SDS011;11852;50.082;18.554;2023-07-20T06:09:57;4.4;;;1.6;;
23360;SDS011;11852;50.082;18.554;2023-07-20T06:11:02;3.7;;;1.7;;
23360;SDS011;11852;50.082;18.554;2023-07-20T06:12:07;5.2;;;1.6;;
23360;SDS011;11852;50.082;18.554;2023-07-20T06:13:12;3.7;;;1.6;;
23360;SDS011;11852;50.082;18.554;2023-07-20T06:14:17;3.6;;;1.5;;
23360;SDS011;11852;50.082;18.554;2023-07-20T06:16:31;3.9;;;1.6;;
23360;SDS011;11852;50.082;18.554;2023-07-20T06:17:37;4.2;;;1.4;;
23360;SDS011;11852;50.082;18.554;2023-07-20T06:18:42;4.7;;;1.4;;
23360;SDS011;11852;50.082;18.554;2023-07-20T06:19:48;3.7;;;1.6;;
23360;SDS011;11852;50.082;18.554;2023-07-20T06:20:53;3.7;;;1.6;;
23360;SDS011;11852;50.082;18.554;2023-07-20T06:21:58;7.4;;;1.6;;
23360;SDS011;11852;50.082;18.554;2023-07-20T06:23:03;4.0;;;1.5;;
23360;SDS011;11852;50.082;18.554;2023-07-20T06:24:08;4.7;;;1.5;;
23360;SDS011;11852;50.082;18.554;2023-07-20T06:25:12;4.0;;;1.4;;
23360;SDS011;11852;50.082;18.554;2023-07-20T06:26:17;4.5;;;1.3;;
23360;SDS011;11852;50.082;18.554;2023-07-20T06:27:22;3.8;;;1.4;;
23360;SDS011;11852;50.082;18.554;2023-07-20T06:28:27;4.3;;;1.5;;
23360;SDS011;11852;50.082;18.554;2023-07-20T06:29:32;4.4;;;1.3;;
23360;SDS011;11852;50.082;18.554;2023-07-20T06:30:37;3.6;;;1.2;;
23360;SDS011;11852;50.082;18.554;2023-07-20T06:31:41;3.9;;;1.4;;
23360;SDS011;11852;50.082;18.554;2023-07-20T06:32:46;5.4;;;1.7;;
23360;SDS011;11852;50.082;18.554;2023-07-20T06:33:52;4.1;;;1.5;;
23360;SDS011;11852;50.082;18.554;2023-07-20T06:34:57;5.0;;;1.4;;
23360;SDS011;11852;50.082;18.554;2023-07-20T06:36:01;4.6;;;1.5;;
23360;SDS011;11852;50.082;18.554;2023-07-20T06:37:06;4.9;;;1.4;;
23360;SDS011;11852;50.082;18.554;2023-07-20T06:38:11;4.3;;;1.5;;
23360;SDS011;11852;50.082;18.554;2023-07-20T06:39:17;3.8;;;1.4;;
23360;SDS011;11852;50.082;18.554;2023-07-20T06:40:22;4.0;;;1.2;;
23360;SDS011;11852;50.082;18.554;2023-07-20T06:41:27;6.2;;;1.7;;
23360;SDS011;11852;50.082;18.554;2023-07-20T06:42:31;4.8;;;1.5;;
23360;SDS011;11852;50.082;18.554;2023-07-20T06:43:37;3.6;;;1.6;;
23360;SDS011;11852;50.082;18.554;2023-07-20T06:44:48;3.5;;;1.3;;
23360;SDS011;11852;50.082;18.554;2023-07-20T06:45:55;4.2;;;1.5;;
23360;SDS011;11852;50.082;18.554;2023-07-20T06:47:00;5.2;;;1.5;;
23360;SDS011;11852;50.082;18.554;2023-07-20T06:48:05;4.3;;;1.3;;
23360;SDS011;11852;50.082;18.554;2023-07-20T06:49:10;4.1;;;1.4;;
23360;SDS011;11852;50.082;18.554;2023-07-20T06:50:15;4.3;;;1.4;;
23360;SDS011;11852;50.082;18.554;2023-07-20T06:51:19;4.1;;;1.3;;
23360;SDS011;11852;50.082;18.554;2023-07-20T06:52:24;4.7;;;1.4;;
23360;SDS011;11852;50.082;18.554;2023-07-20T06:53:29;3.8;;;1.4;;
23360;SDS011;11852;50.082;18.554;2023-07-20T06:54:34;5.6;;;1.2;;
23360;SDS011;11852;50.082;18.554;2023-07-20T06:55:39;4.0;;;1.5;;